sensor_id;sensor_type;location;lat;lon;timestamp;temperature;humidity
75838;SHT30;64480;52.040;113.502;2024-03-06T00:01:35;-9.66;48.66
75838;SHT30;64480;52.040;113.502;2024-03-06T00:04:39;-9.31;47.92
75838;SHT30;64480;52.040;113.502;2024-03-06T00:07:43;-8.81;47.06
75838;SHT30;64480;52.040;113.502;2024-03-06T00:10:47;-8.38;45.38
75838;SHT30;64480;52.040;113.502;2024-03-06T00:13:53;-8.07;44.42
75838;SHT30;64480;52.040;113.502;2024-03-06T00:16:56;-7.81;43.24
75838;SHT30;64480;52.040;113.502;2024-03-06T00:20:01;-7.59;42.14
75838;SHT30;64480;52.040;113.502;2024-03-06T00:23:08;-7.50;41.53
75838;SHT30;64480;52.040;113.502;2024-03-06T00:26:12;-7.39;41.13
75838;SHT30;64480;52.040;113.502;2024-03-06T00:29:16;-7.26;40.84
75838;SHT30;64480;52.040;113.502;2024-03-06T00:32:21;-7.05;40.60
75838;SHT30;64480;52.040;113.502;2024-03-06T00:35:26;-6.67;39.81
75838;SHT30;64480;52.040;113.502;2024-03-06T00:38:32;-7.23;40.38
75838;SHT30;64480;52.040;113.502;2024-03-06T00:41:35;-8.07;42.47
75838;SHT30;64480;52.040;113.502;2024-03-06T00:44:38;-8.82;44.30
75838;SHT30;64480;52.040;113.502;2024-03-06T00:47:42;-9.42;45.80
75838;SHT30;64480;52.040;113.502;2024-03-06T00:50:46;-9.80;47.50
75838;SHT30;64480;52.040;113.502;2024-03-06T00:53:54;-9.95;48.86
75838;SHT30;64480;52.040;113.502;2024-03-06T00:56:59;-9.99;49.07
75838;SHT30;64480;52.040;113.502;2024-03-06T01:00:05;-10.07;49.44
75838;SHT30;64480;52.040;113.502;2024-03-06T01:03:13;-10.14;50.18
75838;SHT30;64480;52.040;113.502;2024-03-06T01:06:16;-10.23;51.23
75838;SHT30;64480;52.040;113.502;2024-03-06T01:09:19;-10.24;51.91
75838;SHT30;64480;52.040;113.502;2024-03-06T01:12:25;-10.25;52.89
75838;SHT30;64480;52.040;113.502;2024-03-06T01:15:29;-10.21;53.34
75838;SHT30;64480;52.040;113.502;2024-03-06T01:18:33;-10.14;54.26
75838;SHT30;64480;52.040;113.502;2024-03-06T01:21:38;-10.09;55.06
75838;SHT30;64480;52.040;113.502;2024-03-06T01:24:41;-10.09;55.25
75838;SHT30;64480;52.040;113.502;2024-03-06T01:27:45;-10.03;55.59
75838;SHT30;64480;52.040;113.502;2024-03-06T01:30:48;-9.96;55.66
75838;SHT30;64480;52.040;113.502;2024-03-06T01:33:55;-9.82;55.35
75838;SHT30;64480;52.040;113.502;2024-03-06T01:36:58;-9.71;55.15
75838;SHT30;64480;52.040;113.502;2024-03-06T01:40:01;-9.58;54.89
75838;SHT30;64480;52.040;113.502;2024-03-06T01:43:20;-9.42;54.50
75838;SHT30;64480;52.040;113.502;2024-03-06T01:46:25;-9.30;53.98
75838;SHT30;64480;52.040;113.502;2024-03-06T01:49:28;-9.26;53.62
75838;SHT30;64480;52.040;113.502;2024-03-06T01:52:43;-9.12;53.51
75838;SHT30;64480;52.040;113.502;2024-03-06T01:55:48;-9.06;53.43
75838;SHT30;64480;52.040;113.502;2024-03-06T01:58:56;-9.00;53.37
75838;SHT30;64480;52.040;113.502;2024-03-06T02:02:00;-8.82;53.49
75838;SHT30;64480;52.040;113.502;2024-03-06T02:05:07;-8.57;53.32
75838;SHT30;64480;52.040;113.502;2024-03-06T02:08:10;-8.33;52.10
75838;SHT30;64480;52.040;113.502;2024-03-06T02:11:15;-8.16;52.13
75838;SHT30;64480;52.040;113.502;2024-03-06T02:14:20;-7.92;52.18
75838;SHT30;64480;52.040;113.502;2024-03-06T02:17:24;-7.79;50.93
75838;SHT30;64480;52.040;113.502;2024-03-06T02:20:28;-7.65;50.88
75838;SHT30;64480;52.040;113.502;2024-03-06T02:23:31;-7.58;50.72
75838;SHT30;64480;52.040;113.502;2024-03-06T02:26:35;-7.51;50.41
75838;SHT30;64480;52.040;113.502;2024-03-06T02:29:39;-7.34;50.10
75838;SHT30;64480;52.040;113.502;2024-03-06T02:32:42;-7.18;50.24
75838;SHT30;64480;52.040;113.502;2024-03-06T02:35:48;-7.02;49.73
75838;SHT30;64480;52.040;113.502;2024-03-06T02:38:56;-6.89;49.48
75838;SHT30;64480;52.040;113.502;2024-03-06T02:41:59;-6.67;49.23
75838;SHT30;64480;52.040;113.502;2024-03-06T02:45:03;-6.46;49.06
75838;SHT30;64480;52.040;113.502;2024-03-06T02:48:08;-6.36;48.54
75838;SHT30;64480;52.040;113.502;2024-03-06T02:51:18;-6.25;48.58
75838;SHT30;64480;52.040;113.502;2024-03-06T02:54:23;-6.08;48.52
75838;SHT30;64480;52.040;113.502;2024-03-06T02:57:28;-5.97;47.65
75838;SHT30;64480;52.040;113.502;2024-03-06T03:00:33;-5.81;47.64
75838;SHT30;64480;52.040;113.502;2024-03-06T03:03:36;-5.70;47.31
75838;SHT30;64480;52.040;113.502;2024-03-06T03:06:44;-5.54;47.26
75838;SHT30;64480;52.040;113.502;2024-03-06T03:09:48;-5.47;46.68
75838;SHT30;64480;52.040;113.502;2024-03-06T03:12:53;-5.44;46.39
75838;SHT30;64480;52.040;113.502;2024-03-06T03:16:00;-5.40;46.46
75838;SHT30;64480;52.040;113.502;2024-03-06T03:19:06;-5.39;46.71
75838;SHT30;64480;52.040;113.502;2024-03-06T03:22:11;-5.28;46.47
75838;SHT30;64480;52.040;113.502;2024-03-06T03:25:14;-5.19;46.45
75838;SHT30;64480;52.040;113.502;2024-03-06T03:28:17;-5.09;46.12
75838;SHT30;64480;52.040;113.502;2024-03-06T03:31:21;-4.94;46.25
75838;SHT30;64480;52.040;113.502;2024-03-06T03:34:24;-4.83;45.91
75838;SHT30;64480;52.040;113.502;2024-03-06T03:37:27;-4.64;45.35
75838;SHT30;64480;52.040;113.502;2024-03-06T03:40:30;-4.56;44.83
75838;SHT30;64480;52.040;113.502;2024-03-06T03:43:35;-4.46;45.32
75838;SHT30;64480;52.040;113.502;2024-03-06T03:46:38;-4.32;45.12
75838;SHT30;64480;52.040;113.502;2024-03-06T03:49:42;-4.32;45.14
75838;SHT30;64480;52.040;113.502;2024-03-06T03:52:49;-4.42;44.34
75838;SHT30;64480;52.040;113.502;2024-03-06T03:55:53;-4.41;44.59
75838;SHT30;64480;52.040;113.502;2024-03-06T03:59:02;-4.22;44.70
75838;SHT30;64480;52.040;113.502;2024-03-06T04:02:07;-4.15;43.96
75838;SHT30;64480;52.040;113.502;2024-03-06T04:05:12;-4.01;44.47
75838;SHT30;64480;52.040;113.502;2024-03-06T04:08:16;-3.87;43.59
75838;SHT30;64480;52.040;113.502;2024-03-06T04:11:19;-3.79;42.48
75838;SHT30;64480;52.040;113.502;2024-03-06T04:14:23;-3.81;41.98
75838;SHT30;64480;52.040;113.502;2024-03-06T04:17:29;-3.76;42.59
75838;SHT30;64480;52.040;113.502;2024-03-06T04:20:33;-3.55;41.96
75838;SHT30;64480;52.040;113.502;2024-03-06T04:23:37;-3.28;41.92
75838;SHT30;64480;52.040;113.502;2024-03-06T04:26:41;-3.27;39.76
75838;SHT30;64480;52.040;113.502;2024-03-06T04:29:45;-3.28;39.51
75838;SHT30;64480;52.040;113.502;2024-03-06T04:32:49;-3.21;39.75
75838;SHT30;64480;52.040;113.502;2024-03-06T04:36:00;-3.05;38.90
75838;SHT30;64480;52.040;113.502;2024-03-06T04:39:05;-3.04;39.32
75838;SHT30;64480;52.040;113.502;2024-03-06T04:42:10;-2.87;38.76
75838;SHT30;64480;52.040;113.502;2024-03-06T04:45:17;-2.70;39.58
75838;SHT30;64480;52.040;113.502;2024-03-06T04:48:20;-2.59;38.48
75838;SHT30;64480;52.040;113.502;2024-03-06T04:51:24;-2.51;38.07
75838;SHT30;64480;52.040;113.502;2024-03-06T04:54:28;-2.45;37.25
75838;SHT30;64480;52.040;113.502;2024-03-06T04:57:33;-2.24;36.55
75838;SHT30;64480;52.040;113.502;2024-03-06T05:00:36;-1.83;36.56
75838;SHT30;64480;52.040;113.502;2024-03-06T05:03:43;-1.62;36.14
75838;SHT30;64480;52.040;113.502;2024-03-06T05:07:03;-1.24;35.48
75838;SHT30;64480;52.040;113.502;2024-03-06T05:10:24;-1.07;35.50
75838;SHT30;64480;52.040;113.502;2024-03-06T05:13:46;-0.93;34.98
75838;SHT30;64480;52.040;113.502;2024-03-06T05:17:07;-0.90;34.86
75838;SHT30;64480;52.040;113.502;2024-03-06T05:20:29;-0.61;35.31
75838;SHT30;64480;52.040;113.502;2024-03-06T05:23:51;-0.45;35.11
75838;SHT30;64480;52.040;113.502;2024-03-06T05:27:23;-0.17;34.31
75838;SHT30;64480;52.040;113.502;2024-03-06T05:30:45;-0.17;34.27
75838;SHT30;64480;52.040;113.502;2024-03-06T05:34:10;-0.31;34.72
75838;SHT30;64480;52.040;113.502;2024-03-06T05:37:30;-0.61;35.29
75838;SHT30;64480;52.040;113.502;2024-03-06T05:40:51;-0.68;35.93
75838;SHT30;64480;52.040;113.502;2024-03-06T05:44:12;-0.80;35.97
75838;SHT30;64480;52.040;113.502;2024-03-06T05:47:32;-0.89;38.07
75838;SHT30;64480;52.040;113.502;2024-03-06T05:50:53;-1.00;39.89
75838;SHT30;64480;52.040;113.502;2024-03-06T05:54:14;-1.07;40.39
75838;SHT30;64480;52.040;113.502;2024-03-06T05:57:34;-0.79;39.55
75838;SHT30;64480;52.040;113.502;2024-03-06T06:00:59;-0.65;38.79
75838;SHT30;64480;52.040;113.502;2024-03-06T06:04:02;-0.42;37.57
75838;SHT30;64480;52.040;113.502;2024-03-06T06:07:09;-0.13;37.65
75838;SHT30;64480;52.040;113.502;2024-03-06T06:10:12;-0.07;36.58
75838;SHT30;64480;52.040;113.502;2024-03-06T06:13:21;-0.03;36.83
75838;SHT30;64480;52.040;113.502;2024-03-06T06:16:24;-0.32;36.53
75838;SHT30;64480;52.040;113.502;2024-03-06T06:19:28;-0.20;36.81
75838;SHT30;64480;52.040;113.502;2024-03-06T06:22:32;-0.37;35.80
75838;SHT30;64480;52.040;113.502;2024-03-06T06:25:37;-0.52;35.46
75838;SHT30;64480;52.040;113.502;2024-03-06T06:28:43;-0.76;36.22
75838;SHT30;64480;52.040;113.502;2024-03-06T06:31:48;-0.64;35.72
75838;SHT30;64480;52.040;113.502;2024-03-06T06:34:51;-0.57;35.56
75838;SHT30;64480;52.040;113.502;2024-03-06T06:37:55;-0.48;35.74
75838;SHT30;64480;52.040;113.502;2024-03-06T06:41:00;-0.54;36.35
75838;SHT30;64480;52.040;113.502;2024-03-06T06:44:05;-0.27;36.86
75838;SHT30;64480;52.040;113.502;2024-03-06T06:47:09;-0.35;36.02
75838;SHT30;64480;52.040;113.502;2024-03-06T06:50:13;-0.24;36.75
75838;SHT30;64480;52.040;113.502;2024-03-06T06:53:17;-0.02;35.79
75838;SHT30;64480;52.040;113.502;2024-03-06T06:56:23;0.18;36.08
75838;SHT30;64480;52.040;113.502;2024-03-06T06:59:30;0.53;37.06
75838;SHT30;64480;52.040;113.502;2024-03-06T07:02:33;0.34;36.94
75838;SHT30;64480;52.040;113.502;2024-03-06T07:05:39;0.29;35.68
75838;SHT30;64480;52.040;113.502;2024-03-06T07:08:46;0.56;37.49
75838;SHT30;64480;52.040;113.502;2024-03-06T07:11:50;0.37;35.71
75838;SHT30;64480;52.040;113.502;2024-03-06T07:14:53;0.34;36.36
75838;SHT30;64480;52.040;113.502;2024-03-06T07:18:00;0.08;35.49
75838;SHT30;64480;52.040;113.502;2024-03-06T07:21:04;0.08;35.73
75838;SHT30;64480;52.040;113.502;2024-03-06T07:24:08;-0.09;35.66
75838;SHT30;64480;52.040;113.502;2024-03-06T07:27:12;-0.32;36.75
75838;SHT30;64480;52.040;113.502;2024-03-06T07:30:16;-0.73;36.56
75838;SHT30;64480;52.040;113.502;2024-03-06T07:33:20;-1.15;37.45
75838;SHT30;64480;52.040;113.502;2024-03-06T07:36:27;-1.37;38.51
75838;SHT30;64480;52.040;113.502;2024-03-06T07:39:33;-1.52;38.94
75838;SHT30;64480;52.040;113.502;2024-03-06T07:42:38;-1.56;38.31
75838;SHT30;64480;52.040;113.502;2024-03-06T07:45:41;-1.56;38.73
75838;SHT30;64480;52.040;113.502;2024-03-06T07:48:46;-1.54;38.36
75838;SHT30;64480;52.040;113.502;2024-03-06T07:51:50;-1.56;39.00
75838;SHT30;64480;52.040;113.502;2024-03-06T07:54:54;-1.59;38.30
75838;SHT30;64480;52.040;113.502;2024-03-06T07:58:00;-1.63;38.84
75838;SHT30;64480;52.040;113.502;2024-03-06T08:01:03;-1.89;38.64
75838;SHT30;64480;52.040;113.502;2024-03-06T08:04:07;-1.96;38.92
75838;SHT30;64480;52.040;113.502;2024-03-06T08:07:13;-1.93;38.60
75838;SHT30;64480;52.040;113.502;2024-03-06T08:10:17;-1.93;39.44
75838;SHT30;64480;52.040;113.502;2024-03-06T08:13:22;-1.97;39.30
75838;SHT30;64480;52.040;113.502;2024-03-06T08:16:25;-2.10;39.18
75838;SHT30;64480;52.040;113.502;2024-03-06T08:19:28;-2.18;39.66
75838;SHT30;64480;52.040;113.502;2024-03-06T08:22:31;-2.24;39.85
75838;SHT30;64480;52.040;113.502;2024-03-06T08:25:36;-2.35;40.11
75838;SHT30;64480;52.040;113.502;2024-03-06T08:28:41;-2.38;40.56
75838;SHT30;64480;52.040;113.502;2024-03-06T08:31:44;-2.38;41.46
75838;SHT30;64480;52.040;113.502;2024-03-06T08:34:48;-2.40;41.18
75838;SHT30;64480;52.040;113.502;2024-03-06T08:37:51;-2.34;40.97
75838;SHT30;64480;52.040;113.502;2024-03-06T08:40:55;-2.27;41.40
75838;SHT30;64480;52.040;113.502;2024-03-06T08:44:01;-2.14;40.44
75838;SHT30;64480;52.040;113.502;2024-03-06T08:47:04;-2.10;40.17
75838;SHT30;64480;52.040;113.502;2024-03-06T08:50:09;-2.11;40.05
75838;SHT30;64480;52.040;113.502;2024-03-06T08:53:12;-2.21;40.69
75838;SHT30;64480;52.040;113.502;2024-03-06T08:56:16;-2.37;40.06
75838;SHT30;64480;52.040;113.502;2024-03-06T08:59:21;-2.49;40.51
75838;SHT30;64480;52.040;113.502;2024-03-06T09:02:24;-2.60;41.02
75838;SHT30;64480;52.040;113.502;2024-03-06T09:05:28;-2.69;40.93
75838;SHT30;64480;52.040;113.502;2024-03-06T09:08:31;-2.69;41.42
75838;SHT30;64480;52.040;113.502;2024-03-06T09:11:35;-2.63;41.66
75838;SHT30;64480;52.040;113.502;2024-03-06T09:14:39;-2.52;41.87
75838;SHT30;64480;52.040;113.502;2024-03-06T09:17:43;-2.44;41.77
75838;SHT30;64480;52.040;113.502;2024-03-06T09:20:48;-2.34;41.85
75838;SHT30;64480;52.040;113.502;2024-03-06T09:23:52;-2.32;42.00
75838;SHT30;64480;52.040;113.502;2024-03-06T09:26:56;-2.31;41.72
75838;SHT30;64480;52.040;113.502;2024-03-06T09:30:07;-2.31;41.32
75838;SHT30;64480;52.040;113.502;2024-03-06T09:33:12;-2.38;40.93
75838;SHT30;64480;52.040;113.502;2024-03-06T09:36:15;-2.45;41.36
75838;SHT30;64480;52.040;113.502;2024-03-06T09:39:20;-2.55;41.60
75838;SHT30;64480;52.040;113.502;2024-03-06T09:42:25;-2.65;41.75
75838;SHT30;64480;52.040;113.502;2024-03-06T09:45:28;-2.79;42.34
75838;SHT30;64480;52.040;113.502;2024-03-06T09:48:32;-2.88;42.71
75838;SHT30;64480;52.040;113.502;2024-03-06T09:51:49;-2.97;43.34
75838;SHT30;64480;52.040;113.502;2024-03-06T09:55:02;-3.11;43.68
75838;SHT30;64480;52.040;113.502;2024-03-06T09:58:08;-3.21;43.94
75838;SHT30;64480;52.040;113.502;2024-03-06T10:01:14;-3.27;44.08
75838;SHT30;64480;52.040;113.502;2024-03-06T10:04:20;-3.41;44.25
75838;SHT30;64480;52.040;113.502;2024-03-06T10:07:24;-3.46;44.39
75838;SHT30;64480;52.040;113.502;2024-03-06T10:10:30;-3.56;45.26
75838;SHT30;64480;52.040;113.502;2024-03-06T10:13:34;-3.69;45.90
75838;SHT30;64480;52.040;113.502;2024-03-06T10:16:51;-3.77;46.73
75838;SHT30;64480;52.040;113.502;2024-03-06T10:19:54;-3.95;47.52
75838;SHT30;64480;52.040;113.502;2024-03-06T10:23:00;-4.07;48.22
75838;SHT30;64480;52.040;113.502;2024-03-06T10:26:07;-4.21;49.00
75838;SHT30;64480;52.040;113.502;2024-03-06T10:29:15;-4.29;49.42
75838;SHT30;64480;52.040;113.502;2024-03-06T10:32:19;-4.37;49.44
75838;SHT30;64480;52.040;113.502;2024-03-06T10:35:24;-4.48;49.88
75838;SHT30;64480;52.040;113.502;2024-03-06T10:38:32;-4.53;49.92
75838;SHT30;64480;52.040;113.502;2024-03-06T10:41:40;-4.57;49.95
75838;SHT30;64480;52.040;113.502;2024-03-06T10:44:52;-4.62;50.15
75838;SHT30;64480;52.040;113.502;2024-03-06T10:47:57;-4.62;50.29
75838;SHT30;64480;52.040;113.502;2024-03-06T10:51:07;-4.67;50.30
75838;SHT30;64480;52.040;113.502;2024-03-06T10:54:13;-4.70;50.31
75838;SHT30;64480;52.040;113.502;2024-03-06T10:57:19;-4.76;50.03
75838;SHT30;64480;52.040;113.502;2024-03-06T11:00:24;-4.76;50.43
75838;SHT30;64480;52.040;113.502;2024-03-06T11:03:27;-4.81;50.18
75838;SHT30;64480;52.040;113.502;2024-03-06T11:06:34;-4.87;50.59
75838;SHT30;64480;52.040;113.502;2024-03-06T11:09:37;-4.90;50.71
75838;SHT30;64480;52.040;113.502;2024-03-06T11:12:42;-4.94;50.92
75838;SHT30;64480;52.040;113.502;2024-03-06T11:15:53;-4.99;51.46
75838;SHT30;64480;52.040;113.502;2024-03-06T11:19:07;-5.02;51.98
75838;SHT30;64480;52.040;113.502;2024-03-06T11:22:10;-5.11;52.39
75838;SHT30;64480;52.040;113.502;2024-03-06T11:28:53;-5.22;52.50
75838;SHT30;64480;52.040;113.502;2024-03-06T11:32:07;-5.29;52.38
75838;SHT30;64480;52.040;113.502;2024-03-06T11:35:12;-5.36;52.41
75838;SHT30;64480;52.040;113.502;2024-03-06T11:38:19;-5.40;52.79
75838;SHT30;64480;52.040;113.502;2024-03-06T11:41:27;-5.46;52.74
75838;SHT30;64480;52.040;113.502;2024-03-06T11:44:31;-5.53;53.04
75838;SHT30;64480;52.040;113.502;2024-03-06T11:47:57;-5.60;53.13
75838;SHT30;64480;52.040;113.502;2024-03-06T11:51:05;-5.62;53.57
75838;SHT30;64480;52.040;113.502;2024-03-06T11:54:09;-5.66;53.64
75838;SHT30;64480;52.040;113.502;2024-03-06T11:57:13;-5.74;53.41
75838;SHT30;64480;52.040;113.502;2024-03-06T12:00:23;-5.74;52.75
75838;SHT30;64480;52.040;113.502;2024-03-06T12:03:27;-5.75;52.43
75838;SHT30;64480;52.040;113.502;2024-03-06T12:06:32;-5.80;51.82
75838;SHT30;64480;52.040;113.502;2024-03-06T12:09:38;-5.84;51.79
75838;SHT30;64480;52.040;113.502;2024-03-06T12:12:45;-5.90;51.87
75838;SHT30;64480;52.040;113.502;2024-03-06T12:15:48;-5.94;52.08
75838;SHT30;64480;52.040;113.502;2024-03-06T12:18:57;-5.95;52.13
75838;SHT30;64480;52.040;113.502;2024-03-06T12:22:03;-6.02;51.85
75838;SHT30;64480;52.040;113.502;2024-03-06T12:25:07;-6.02;51.93
75838;SHT30;64480;52.040;113.502;2024-03-06T12:28:11;-6.03;52.06
75838;SHT30;64480;52.040;113.502;2024-03-06T12:31:15;-6.03;52.26
75838;SHT30;64480;52.040;113.502;2024-03-06T12:34:19;-6.09;52.40
75838;SHT30;64480;52.040;113.502;2024-03-06T12:37:29;-6.12;52.27
75838;SHT30;64480;52.040;113.502;2024-03-06T12:40:43;-6.15;52.32
75838;SHT30;64480;52.040;113.502;2024-03-06T12:43:50;-6.19;52.33
75838;SHT30;64480;52.040;113.502;2024-03-06T12:46:53;-6.22;52.30
75838;SHT30;64480;52.040;113.502;2024-03-06T12:49:59;-6.25;52.47
75838;SHT30;64480;52.040;113.502;2024-03-06T12:53:07;-6.28;52.51
75838;SHT30;64480;52.040;113.502;2024-03-06T12:56:11;-6.37;53.57
75838;SHT30;64480;52.040;113.502;2024-03-06T12:59:17;-6.46;53.73
75838;SHT30;64480;52.040;113.502;2024-03-06T13:02:24;-6.58;54.47
75838;SHT30;64480;52.040;113.502;2024-03-06T13:05:28;-6.74;55.01
75838;SHT30;64480;52.040;113.502;2024-03-06T13:08:34;-6.82;55.31
75838;SHT30;64480;52.040;113.502;2024-03-06T13:11:38;-6.95;55.56
75838;SHT30;64480;52.040;113.502;2024-03-06T13:14:42;-7.02;56.09
75838;SHT30;64480;52.040;113.502;2024-03-06T13:17:46;-7.11;56.34
75838;SHT30;64480;52.040;113.502;2024-03-06T13:20:49;-7.12;56.67
75838;SHT30;64480;52.040;113.502;2024-03-06T13:23:57;-7.15;56.73
75838;SHT30;64480;52.040;113.502;2024-03-06T13:27:03;-7.20;56.70
75838;SHT30;64480;52.040;113.502;2024-03-06T13:30:08;-7.30;56.85
75838;SHT30;64480;52.040;113.502;2024-03-06T13:33:13;-7.29;56.65
75838;SHT30;64480;52.040;113.502;2024-03-06T13:36:16;-7.34;56.75
75838;SHT30;64480;52.040;113.502;2024-03-06T13:39:20;-7.41;57.08
75838;SHT30;64480;52.040;113.502;2024-03-06T13:42:23;-7.50;57.54
75838;SHT30;64480;52.040;113.502;2024-03-06T13:45:27;-7.59;57.92
75838;SHT30;64480;52.040;113.502;2024-03-06T13:48:31;-7.65;58.15
75838;SHT30;64480;52.040;113.502;2024-03-06T13:51:35;-7.68;58.12
75838;SHT30;64480;52.040;113.502;2024-03-06T13:54:42;-7.75;58.48
75838;SHT30;64480;52.040;113.502;2024-03-06T13:57:45;-7.81;58.57
75838;SHT30;64480;52.040;113.502;2024-03-06T14:00:50;-7.84;58.84
75838;SHT30;64480;52.040;113.502;2024-03-06T14:03:55;-7.91;58.86
75838;SHT30;64480;52.040;113.502;2024-03-06T14:06:58;-7.92;58.77
75838;SHT30;64480;52.040;113.502;2024-03-06T14:10:06;-7.94;58.97
75838;SHT30;64480;52.040;113.502;2024-03-06T14:13:20;-8.02;58.86
75838;SHT30;64480;52.040;113.502;2024-03-06T14:16:23;-8.10;59.20
75838;SHT30;64480;52.040;113.502;2024-03-06T14:19:27;-8.19;59.19
75838;SHT30;64480;52.040;113.502;2024-03-06T14:22:30;-8.24;59.08
75838;SHT30;64480;52.040;113.502;2024-03-06T14:25:37;-8.30;58.83
75838;SHT30;64480;52.040;113.502;2024-03-06T14:28:42;-8.24;58.60
75838;SHT30;64480;52.040;113.502;2024-03-06T14:31:45;-8.26;58.47
75838;SHT30;64480;52.040;113.502;2024-03-06T14:34:49;-8.26;58.73
75838;SHT30;64480;52.040;113.502;2024-03-06T14:37:54;-8.26;58.78
75838;SHT30;64480;52.040;113.502;2024-03-06T14:40:59;-8.29;58.55
75838;SHT30;64480;52.040;113.502;2024-03-06T14:44:03;-8.37;58.57
75838;SHT30;64480;52.040;113.502;2024-03-06T14:47:07;-8.45;58.37
75838;SHT30;64480;52.040;113.502;2024-03-06T14:50:11;-8.47;58.53
75838;SHT30;64480;52.040;113.502;2024-03-06T14:53:15;-8.51;58.32
75838;SHT30;64480;52.040;113.502;2024-03-06T14:56:19;-8.52;58.49
75838;SHT30;64480;52.040;113.502;2024-03-06T14:59:26;-8.55;58.57
75838;SHT30;64480;52.040;113.502;2024-03-06T15:02:43;-8.55;58.77
75838;SHT30;64480;52.040;113.502;2024-03-06T15:05:48;-8.55;58.94
75838;SHT30;64480;52.040;113.502;2024-03-06T15:09:04;-8.50;58.95
75838;SHT30;64480;52.040;113.502;2024-03-06T15:12:09;-8.52;58.79
75838;SHT30;64480;52.040;113.502;2024-03-06T15:15:12;-8.59;58.55
75838;SHT30;64480;52.040;113.502;2024-03-06T15:18:16;-8.72;58.57
75838;SHT30;64480;52.040;113.502;2024-03-06T15:21:20;-8.82;58.78
75838;SHT30;64480;52.040;113.502;2024-03-06T15:24:24;-8.95;59.10
75838;SHT30;64480;52.040;113.502;2024-03-06T15:27:27;-9.02;59.44
75838;SHT30;64480;52.040;113.502;2024-03-06T15:30:31;-9.12;59.49
75838;SHT30;64480;52.040;113.502;2024-03-06T15:33:36;-9.07;59.44
75838;SHT30;64480;52.040;113.502;2024-03-06T15:36:40;-9.10;59.47
75838;SHT30;64480;52.040;113.502;2024-03-06T15:39:44;-9.10;59.18
75838;SHT30;64480;52.040;113.502;2024-03-06T15:42:47;-9.10;58.34
75838;SHT30;64480;52.040;113.502;2024-03-06T15:45:50;-9.23;58.85
75838;SHT30;64480;52.040;113.502;2024-03-06T15:48:53;-9.16;59.32
75838;SHT30;64480;52.040;113.502;2024-03-06T15:51:57;-9.14;59.13
75838;SHT30;64480;52.040;113.502;2024-03-06T15:55:00;-9.19;59.04
75838;SHT30;64480;52.040;113.502;2024-03-06T15:58:05;-9.26;59.01
75838;SHT30;64480;52.040;113.502;2024-03-06T16:01:08;-9.33;59.22
75838;SHT30;64480;52.040;113.502;2024-03-06T16:04:12;-9.33;59.47
75838;SHT30;64480;52.040;113.502;2024-03-06T16:07:16;-9.44;59.43
75838;SHT30;64480;52.040;113.502;2024-03-06T16:10:19;-9.48;59.49
75838;SHT30;64480;52.040;113.502;2024-03-06T16:13:24;-9.44;59.54
75838;SHT30;64480;52.040;113.502;2024-03-06T16:16:28;-9.51;59.58
75838;SHT30;64480;52.040;113.502;2024-03-06T16:19:35;-9.52;59.67
75838;SHT30;64480;52.040;113.502;2024-03-06T16:22:47;-9.52;59.71
75838;SHT30;64480;52.040;113.502;2024-03-06T16:25:51;-9.40;59.56
75838;SHT30;64480;52.040;113.502;2024-03-06T16:28:55;-9.33;58.97
75838;SHT30;64480;52.040;113.502;2024-03-06T16:31:58;-9.34;58.79
75838;SHT30;64480;52.040;113.502;2024-03-06T16:35:05;-9.44;58.82
75838;SHT30;64480;52.040;113.502;2024-03-06T16:38:09;-9.59;58.95
75838;SHT30;64480;52.040;113.502;2024-03-06T16:41:12;-9.66;59.63
75838;SHT30;64480;52.040;113.502;2024-03-06T16:44:16;-9.78;59.61
75838;SHT30;64480;52.040;113.502;2024-03-06T16:47:19;-9.90;59.81
75838;SHT30;64480;52.040;113.502;2024-03-06T16:50:22;-9.99;60.08
75838;SHT30;64480;52.040;113.502;2024-03-06T16:53:25;-10.09;60.38
75838;SHT30;64480;52.040;113.502;2024-03-06T16:56:29;-10.17;60.88
75838;SHT30;64480;52.040;113.502;2024-03-06T16:59:32;-10.23;60.86
75838;SHT30;64480;52.040;113.502;2024-03-06T17:02:36;-10.28;61.07
75838;SHT30;64480;52.040;113.502;2024-03-06T17:05:39;-10.35;61.21
75838;SHT30;64480;52.040;113.502;2024-03-06T17:08:46;-10.44;61.17
75838;SHT30;64480;52.040;113.502;2024-03-06T17:11:49;-10.46;61.71
75838;SHT30;64480;52.040;113.502;2024-03-06T17:14:53;-10.46;61.80
75838;SHT30;64480;52.040;113.502;2024-03-06T17:17:56;-10.41;61.72
75838;SHT30;64480;52.040;113.502;2024-03-06T17:21:00;-10.41;61.82
75838;SHT30;64480;52.040;113.502;2024-03-06T17:24:07;-10.06;60.81
75838;SHT30;64480;52.040;113.502;2024-03-06T17:27:11;-9.89;59.63
75838;SHT30;64480;52.040;113.502;2024-03-06T17:30:14;-9.79;58.68
75838;SHT30;64480;52.040;113.502;2024-03-06T17:33:19;-9.73;57.96
75838;SHT30;64480;52.040;113.502;2024-03-06T17:36:22;-9.66;57.55
75838;SHT30;64480;52.040;113.502;2024-03-06T17:39:26;-9.62;57.23
75838;SHT30;64480;52.040;113.502;2024-03-06T17:42:30;-9.59;57.05
75838;SHT30;64480;52.040;113.502;2024-03-06T17:45:33;-9.62;56.91
75838;SHT30;64480;52.040;113.502;2024-03-06T17:48:36;-9.63;57.01
75838;SHT30;64480;52.040;113.502;2024-03-06T17:51:40;-9.69;56.99
75838;SHT30;64480;52.040;113.502;2024-03-06T17:54:45;-9.69;57.08
75838;SHT30;64480;52.040;113.502;2024-03-06T17:57:48;-9.71;57.27
75838;SHT30;64480;52.040;113.502;2024-03-06T18:00:51;-9.78;57.07
75838;SHT30;64480;52.040;113.502;2024-03-06T18:03:55;-9.86;57.15
75838;SHT30;64480;52.040;113.502;2024-03-06T18:06:59;-10.05;57.45
75838;SHT30;64480;52.040;113.502;2024-03-06T18:10:06;-10.12;57.86
75838;SHT30;64480;52.040;113.502;2024-03-06T18:13:13;-10.21;58.09
75838;SHT30;64480;52.040;113.502;2024-03-06T18:16:16;-10.20;58.81
75838;SHT30;64480;52.040;113.502;2024-03-06T18:19:20;-10.37;58.35
75838;SHT30;64480;52.040;113.502;2024-03-06T18:22:24;-10.62;58.79
75838;SHT30;64480;52.040;113.502;2024-03-06T18:25:27;-10.83;59.58
75838;SHT30;64480;52.040;113.502;2024-03-06T18:28:31;-10.99;60.14
75838;SHT30;64480;52.040;113.502;2024-03-06T18:31:34;-11.08;60.78
75838;SHT30;64480;52.040;113.502;2024-03-06T18:34:38;-11.11;61.37
75838;SHT30;64480;52.040;113.502;2024-03-06T18:37:42;-11.23;61.11
75838;SHT30;64480;52.040;113.502;2024-03-06T18:40:45;-11.30;61.48
75838;SHT30;64480;52.040;113.502;2024-03-06T18:43:49;-11.42;61.61
75838;SHT30;64480;52.040;113.502;2024-03-06T18:46:52;-11.36;62.28
75838;SHT30;64480;52.040;113.502;2024-03-06T18:49:57;-11.34;62.61
75838;SHT30;64480;52.040;113.502;2024-03-06T18:53:00;-11.42;62.12
75838;SHT30;64480;52.040;113.502;2024-03-06T18:56:07;-11.49;62.34
75838;SHT30;64480;52.040;113.502;2024-03-06T18:59:10;-11.58;62.39